Time;durP1;ratioP1;P1;durP2;ratioP2;P2;SDS_P1;SDS_P2;PMS_P1;PMS_P2;Temp;Humidity;BMP_temperature;BMP_pressure;BME280_temperature;BME280_humidity;BME280_pressure;Samples;Min_cycle;Max_cycle;Signal;HPM_P1;HPM_P2
2022/01/21 00:01:20;;;;;;;13.07;3.20;;;2.90;99.90;;;;;;4990830;28;20196;-77
2022/01/21 00:03:50;;;;;;;10.40;2.70;;;2.90;99.90;;;;;;5007935;28;20212;-77
2022/01/21 00:06:17;;;;;;;10.70;3.40;;;2.80;99.90;;;;;;4989168;28;20194;-77
2022/01/21 00:08:46;;;;;;;13.63;2.90;;;2.90;99.90;;;;;;4985253;28;20583;-77
2022/01/21 00:11:15;;;;;;;9.13;2.87;;;2.90;99.90;;;;;;4987699;28;20401;-77
2022/01/21 00:14:02;;;;;;;10.00;3.10;;;3.00;99.90;;;;;;4987971;28;20199;-77
2022/01/21 00:16:30;;;;;;;12.00;3.27;;;2.90;99.90;;;;;;5002497;28;20216;-78
2022/01/21 00:19:04;;;;;;;7.57;3.17;;;2.90;99.90;;;;;;5000871;28;20203;-77
2022/01/21 00:30:11;;;;;;;11.60;2.90;;;2.90;99.90;;;;;;5005688;28;20209;-77
2022/01/21 00:32:39;;;;;;;8.47;2.97;;;2.90;99.90;;;;;;4982998;28;20200;-77
2022/01/21 00:35:08;;;;;;;9.07;2.73;;;2.90;99.90;;;;;;5000238;28;20208;-77
2022/01/21 00:37:36;;;;;;;12.00;3.00;;;3.00;99.90;;;;;;4987633;28;20229;-77
2022/01/21 00:40:06;;;;;;;12.07;2.83;;;3.00;99.90;;;;;;5003725;28;20215;-77
2022/01/21 00:42:51;;;;;;;10.97;3.13;;;3.00;99.90;;;;;;5000451;28;20199;-77
2022/01/21 00:45:20;;;;;;;11.00;2.93;;;2.90;99.90;;;;;;5002989;28;20207;-76
2022/01/21 00:47:48;;;;;;;9.37;3.10;;;2.90;99.90;;;;;;5000876;28;20236;-77
2022/01/21 00:50:17;;;;;;;12.17;3.17;;;2.90;99.90;;;;;;5006937;28;20229;-77
2022/01/21 00:52:52;;;;;;;11.23;3.57;;;3.00;99.90;;;;;;5009546;28;20608;-77
2022/01/21 00:55:19;;;;;;;10.37;3.63;;;3.00;99.90;;;;;;5006836;28;20197;-77
2022/01/21 00:57:46;;;;;;;8.10;2.83;;;3.10;99.90;;;;;;5008580;28;20221;-76
2022/01/21 01:00:15;;;;;;;10.20;3.07;;;3.20;99.90;;;;;;5011250;28;20204;-77
2022/01/21 01:02:43;;;;;;;12.07;3.40;;;3.10;99.90;;;;;;4997927;28;20206;-77
2022/01/21 01:05:12;;;;;;;9.53;2.67;;;3.10;99.90;;;;;;5010930;28;20206;-77
2022/01/21 01:07:40;;;;;;;10.73;2.83;;;3.10;99.90;;;;;;5010591;28;20216;-77
2022/01/21 01:10:15;;;;;;;7.40;2.60;;;3.10;99.90;;;;;;5010885;28;20221;-77
2022/01/21 01:12:55;;;;;;;10.47;2.77;;;3.20;99.90;;;;;;5012779;28;20591;-77
2022/01/21 01:20:53;;;;;;;11.07;3.20;;;3.10;99.90;;;;;;4994161;28;20194;-77
2022/01/21 01:23:26;;;;;;;11.73;3.13;;;3.00;99.90;;;;;;5011945;28;20213;-77
2022/01/21 01:28:40;;;;;;;11.43;3.33;;;3.10;99.90;;;;;;4991763;28;20186;-76
2022/01/21 01:31:08;;;;;;;12.37;3.33;;;3.00;99.90;;;;;;4999556;28;20210;-77
2022/01/21 01:33:38;;;;;;;9.47;3.47;;;2.90;99.90;;;;;;4996948;28;20655;-77
2022/01/21 01:36:07;;;;;;;12.53;3.70;;;3.10;99.90;;;;;;4996069;28;20202;-77
2022/01/21 01:41:25;;;;;;;9.37;3.43;;;3.00;99.90;;;;;;5010471;28;20200;-77
2022/01/21 01:49:28;;;;;;;9.17;2.77;;;3.00;99.90;;;;;;4995368;28;20207;-77
2022/01/21 01:51:56;;;;;;;9.20;2.67;;;2.90;99.90;;;;;;5008764;28;20211;-77
2022/01/21 01:54:26;;;;;;;8.53;2.53;;;3.00;99.90;;;;;;4988648;28;20204;-77
2022/01/21 01:56:56;;;;;;;12.77;2.97;;;3.00;99.90;;;;;;4991772;28;20213;-78
2022/01/21 01:59:25;;;;;;;10.03;3.13;;;3.20;99.90;;;;;;4991414;28;20209;-77
2022/01/21 02:01:54;;;;;;;11.37;2.80;;;3.10;99.90;;;;;;4993359;28;20216;-77
2022/01/21 02:04:22;;;;;;;11.47;2.53;;;3.10;99.90;;;;;;5008967;28;20208;-77
2022/01/21 02:06:49;;;;;;;9.50;2.67;;;3.10;99.90;;;;;;4992069;28;20227;-77
2022/01/21 02:09:17;;;;;;;13.50;2.83;;;3.00;99.90;;;;;;5008680;28;20227;-77
2022/01/21 02:11:46;;;;;;;11.43;3.23;;;3.00;99.90;;;;;;5011911;28;20545;-77
2022/01/21 02:14:21;;;;;;;8.10;2.87;;;3.00;99.90;;;;;;5012395;28;20194;-76
2022/01/21 02:17:12;;;;;;;14.80;2.80;;;3.00;99.90;;;;;;5013259;28;20595;-77
2022/01/21 02:22:32;;;;;;;11.20;2.50;;;2.90;99.90;;;;;;4997395;28;20199;-77
2022/01/21 02:25:15;;;;;;;14.70;3.10;;;3.00;99.90;;;;;;4993362;28;20567;-77
2022/01/21 02:27:45;;;;;;;7.43;3.30;;;3.10;99.90;;;;;;5001682;28;20233;-78
2022/01/21 02:30:18;;;;;;;8.90;2.07;;;3.10;99.90;;;;;;4984945;28;20221;-77
2022/01/21 02:32:47;;;;;;;10.60;2.90;;;3.10;99.90;;;;;;4989395;28;20195;-77
2022/01/21 02:35:16;;;;;;;10.20;3.37;;;3.20;99.90;;;;;;4989973;28;20268;-77
2022/01/21 02:37:44;;;;;;;6.83;2.40;;;3.20;99.90;;;;;;4985148;28;20232;-77
2022/01/21 02:40:13;;;;;;;13.83;2.67;;;3.20;99.90;;;;;;4989087;28;20191;-77
2022/01/21 02:42:42;;;;;;;10.43;3.33;;;3.20;99.90;;;;;;5007026;28;20218;-77
2022/01/21 02:45:13;;;;;;;11.10;3.50;;;3.20;99.90;;;;;;4990444;28;20205;-77
2022/01/21 02:47:41;;;;;;;10.23;2.97;;;3.00;99.90;;;;;;5002306;28;20220;-77
2022/01/21 02:50:10;;;;;;;8.20;3.10;;;2.80;99.90;;;;;;4999911;28;20732;-77
2022/01/21 02:52:52;;;;;;;10.77;3.40;;;2.90;99.90;;;;;;5005696;28;20201;-77
2022/01/21 02:55:22;;;;;;;12.63;4.67;;;3.00;99.90;;;;;;5004129;28;20211;-77
2022/01/21 02:58:10;;;;;;;12.17;3.47;;;3.00;99.90;;;;;;5004138;28;20224;-78
2022/01/21 03:00:37;;;;;;;9.57;3.37;;;3.00;99.90;;;;;;4990450;28;20205;-77
2022/01/21 03:03:06;;;;;;;13.43;2.87;;;3.00;99.90;;;;;;5001454;28;20213;-77
2022/01/21 03:05:34;;;;;;;8.63;3.57;;;3.10;99.90;;;;;;4985783;28;20200;-77
2022/01/21 03:08:02;;;;;;;9.50;2.33;;;3.10;99.90;;;;;;4985600;28;20324;-77
2022/01/21 03:10:32;;;;;;;12.70;2.77;;;3.20;99.90;;;;;;5005652;28;20219;-77
2022/01/21 03:12:59;;;;;;;11.53;3.83;;;3.20;99.90;;;;;;4986814;28;20208;-77
2022/01/21 03:15:27;;;;;;;13.63;3.73;;;3.00;99.90;;;;;;5002378;28;20673;-76
2022/01/21 03:17:54;;;;;;;7.40;2.53;;;3.10;99.90;;;;;;5002326;28;20225;-77
2022/01/21 03:20:21;;;;;;;8.30;2.73;;;3.00;99.90;;;;;;4991163;28;20230;-77
2022/01/21 03:22:50;;;;;;;8.33;3.10;;;2.90;99.90;;;;;;4989232;28;20213;-77
2022/01/21 03:25:17;;;;;;;10.57;3.30;;;3.00;99.90;;;;;;4986977;28;20197;-77
2022/01/21 03:27:48;;;;;;;10.00;3.37;;;3.00;99.90;;;;;;5003175;28;20220;-77
2022/01/21 03:30:16;;;;;;;7.87;2.57;;;3.10;99.90;;;;;;4984974;28;20215;-77
2022/01/21 03:32:52;;;;;;;10.20;3.17;;;2.90;99.90;;;;;;4989247;28;20573;-77
2022/01/21 03:35:21;;;;;;;5.27;2.30;;;2.90;99.90;;;;;;5003093;28;20202;-77
2022/01/21 03:37:48;;;;;;;10.03;3.00;;;3.10;99.90;;;;;;4988231;28;20311;-76
2022/01/21 03:40:27;;;;;;;7.03;3.13;;;3.20;99.90;;;;;;5002408;28;20184;-77
2022/01/21 03:42:56;;;;;;;7.33;2.60;;;3.20;99.90;;;;;;4985759;28;20202;-77
2022/01/21 03:45:23;;;;;;;10.20;3.17;;;3.20;99.90;;;;;;4987951;28;20572;-77
2022/01/21 03:47:52;;;;;;;9.37;3.37;;;3.00;99.90;;;;;;5001183;28;20231;-77
2022/01/21 03:50:23;;;;;;;9.93;2.67;;;2.70;99.90;;;;;;5004345;28;20225;-77
2022/01/21 03:52:51;;;;;;;11.20;3.23;;;3.00;99.90;;;;;;4989235;28;20669;-77
2022/01/21 03:55:19;;;;;;;6.20;2.80;;;3.10;99.90;;;;;;5004408;28;20205;-77
2022/01/21 03:57:46;;;;;;;8.57;3.20;;;3.20;99.90;;;;;;5000503;28;20725;-77
2022/01/21 04:00:19;;;;;;;12.03;3.20;;;3.20;99.90;;;;;;4982842;28;20200;-77
2022/01/21 04:02:49;;;;;;;10.93;3.53;;;3.20;99.90;;;;;;4986175;28;20216;-77
2022/01/21 04:05:20;;;;;;;11.20;2.73;;;3.10;99.90;;;;;;4989361;28;20205;-77
2022/01/21 04:07:47;;;;;;;8.83;3.50;;;3.10;99.90;;;;;;5003015;28;20220;-77
2022/01/21 04:10:15;;;;;;;10.07;2.90;;;2.90;99.90;;;;;;5007560;28;20213;-77
2022/01/21 04:12:43;;;;;;;13.17;3.60;;;3.00;99.90;;;;;;5000439;28;20204;-77
2022/01/21 04:15:11;;;;;;;10.53;3.47;;;2.80;99.90;;;;;;4985241;28;20204;-77
2022/01/21 04:17:40;;;;;;;8.73;3.00;;;2.90;99.90;;;;;;4996448;28;20879;-77
2022/01/21 04:20:10;;;;;;;6.87;3.63;;;2.90;99.90;;;;;;4985158;28;20196;-78
2022/01/21 04:22:56;;;;;;;10.70;3.17;;;2.90;99.90;;;;;;5004004;28;20197;-78
2022/01/21 04:25:23;;;;;;;12.27;3.37;;;3.00;99.90;;;;;;4983062;28;20203;-77
2022/01/21 04:27:51;;;;;;;9.57;3.20;;;2.90;99.90;;;;;;4987974;28;20226;-78
2022/01/21 04:30:18;;;;;;;8.70;3.20;;;2.90;99.90;;;;;;4988624;28;20227;-77
2022/01/21 04:32:47;;;;;;;8.37;3.17;;;2.80;99.90;;;;;;5006138;28;20211;-78
2022/01/21 04:35:23;;;;;;;7.17;3.17;;;2.90;99.90;;;;;;5004227;28;20203;-77
2022/01/21 04:37:55;;;;;;;10.70;3.40;;;3.00;99.90;;;;;;5003498;28;20238;-77
2022/01/21 04:40:27;;;;;;;7.70;3.50;;;2.90;99.90;;;;;;5002331;28;20199;-77
2022/01/21 04:48:30;;;;;;;9.53;3.20;;;2.90;99.90;;;;;;4986793;28;20212;-77
2022/01/21 04:51:11;;;;;;;5.77;2.93;;;2.90;99.90;;;;;;4988566;28;20241;-77
2022/01/21 04:53:39;;;;;;;13.23;3.73;;;3.00;99.90;;;;;;4991238;28;20193;-77
2022/01/21 04:56:17;;;;;;;10.27;4.30;;;3.00;99.90;;;;;;5008204;28;20196;-77
2022/01/21 04:58:45;;;;;;;6.70;2.80;;;2.90;99.90;;;;;;4990842;28;20196;-77
2022/01/21 05:01:13;;;;;;;9.23;3.53;;;3.00;99.90;;;;;;5006769;28;20190;-77
2022/01/21 05:03:45;;;;;;;9.53;3.27;;;3.00;99.90;;;;;;5006819;28;20213;-77
2022/01/21 05:06:13;;;;;;;9.43;2.93;;;3.00;99.90;;;;;;4990162;28;20200;-77
2022/01/21 05:08:46;;;;;;;8.47;3.43;;;3.00;99.90;;;;;;4990985;28;20211;-78
2022/01/21 05:11:16;;;;;;;6.90;2.60;;;3.10;99.90;;;;;;4991363;28;20227;-78
2022/01/21 05:13:52;;;;;;;10.27;4.20;;;3.10;99.90;;;;;;5008221;28;20196;-77
2022/01/21 05:16:30;;;;;;;5.07;3.27;;;3.00;99.90;;;;;;4991372;28;20234;-77
2022/01/21 05:19:05;;;;;;;8.17;3.37;;;3.00;99.90;;;;;;4991406;28;20225;-77
2022/01/21 05:21:46;;;;;;;7.30;2.93;;;3.00;99.90;;;;;;4999399;28;20657;-77
2022/01/21 05:24:24;;;;;;;7.77;3.00;;;3.10;99.90;;;;;;4988651;28;20209;-78
2022/01/21 05:26:54;;;;;;;13.90;3.73;;;3.00;99.90;;;;;;5002587;28;20250;-78
2022/01/21 05:29:29;;;;;;;10.43;4.17;;;3.00;99.90;;;;;;5005300;28;20201;-77
2022/01/21 05:32:01;;;;;;;8.80;3.40;;;3.10;99.90;;;;;;4989178;28;20231;-77
2022/01/21 05:34:40;;;;;;;8.70;2.93;;;3.10;99.90;;;;;;4991473;28;20197;-78
2022/01/21 05:37:39;;;;;;;9.90;3.73;;;3.20;99.90;;;;;;4988612;28;20242;-77
2022/01/21 05:40:33;;;;;;;6.40;3.67;;;3.10;99.90;;;;;;5009238;28;20192;-78
2022/01/21 05:43:13;;;;;;;12.70;3.40;;;3.20;99.90;;;;;;4993051;28;20571;-78
2022/01/21 05:49:06;;;;;;;10.30;3.07;;;3.20;99.90;;;;;;4982995;28;20209;-77
2022/01/21 05:52:02;;;;;;;6.93;2.60;;;3.20;99.90;;;;;;4992203;28;20212;-77
2022/01/21 05:54:59;;;;;;;8.67;3.53;;;3.10;99.90;;;;;;4986408;28;20560;-77
2022/01/21 05:57:43;;;;;;;6.80;1.93;;;3.10;99.90;;;;;;5007922;28;20227;-77
2022/01/21 06:00:11;;;;;;;7.00;1.97;;;3.10;99.90;;;;;;4993923;28;20197;-78
2022/01/21 06:02:47;;;;;;;7.27;1.90;;;3.20;99.90;;;;;;5002200;28;20181;-77
2022/01/21 06:05:15;;;;;;;8.60;2.30;;;3.10;99.90;;;;;;4994267;28;20226;-78
2022/01/21 06:07:44;;;;;;;8.30;2.20;;;3.20;99.90;;;;;;4993247;28;20216;-78
2022/01/21 06:10:11;;;;;;;6.47;2.03;;;3.20;99.90;;;;;;4994608;28;20560;-78
2022/01/21 06:12:39;;;;;;;6.23;1.57;;;3.20;99.90;;;;;;4993823;28;20219;-79
2022/01/21 06:15:07;;;;;;;7.67;2.40;;;3.20;99.90;;;;;;4993400;28;20208;-77
2022/01/21 06:17:42;;;;;;;9.27;2.60;;;3.20;99.90;;;;;;4993840;28;20223;-78
2022/01/21 06:20:11;;;;;;;7.03;2.60;;;3.20;99.90;;;;;;4990466;28;20206;-78
2022/01/21 06:22:39;;;;;;;4.70;2.23;;;3.20;99.90;;;;;;4991307;28;20203;-77
2022/01/21 06:25:08;;;;;;;7.80;2.57;;;3.20;99.90;;;;;;5011524;28;20212;-77
2022/01/21 06:27:39;;;;;;;8.67;2.90;;;3.20;99.90;;;;;;5011522;28;20222;-76
2022/01/21 06:30:10;;;;;;;5.67;2.33;;;3.30;99.90;;;;;;4992910;28;20204;-75
2022/01/21 06:32:37;;;;;;;9.37;2.50;;;3.20;99.90;;;;;;4993074;28;20214;-78
2022/01/21 06:35:07;;;;;;;6.57;2.20;;;3.20;99.90;;;;;;5000132;28;20211;-78
2022/01/21 06:37:34;;;;;;;7.97;3.07;;;3.20;99.90;;;;;;4991354;28;20225;-77
2022/01/21 06:40:02;;;;;;;7.40;3.00;;;3.00;99.90;;;;;;5006598;28;20726;-78
2022/01/21 06:42:34;;;;;;;8.77;3.27;;;3.10;99.90;;;;;;4987631;28;20208;-78
2022/01/21 06:45:02;;;;;;;6.63;3.00;;;3.10;99.90;;;;;;5005751;28;20658;-79
2022/01/21 06:47:30;;;;;;;5.67;3.33;;;3.00;99.90;;;;;;5004779;28;20228;-77
2022/01/21 06:49:59;;;;;;;7.50;3.13;;;3.10;99.90;;;;;;4992410;28;20202;-77
2022/01/21 06:52:27;;;;;;;8.53;3.17;;;2.90;99.90;;;;;;4993693;28;20216;-77
2022/01/21 06:54:55;;;;;;;9.83;3.60;;;3.00;99.90;;;;;;5009587;28;20678;-77
2022/01/21 06:57:29;;;;;;;9.60;3.00;;;3.20;99.90;;;;;;5009855;28;20216;-78
2022/01/21 06:59:58;;;;;;;10.27;3.07;;;3.20;99.90;;;;;;5009895;28;20210;-78
2022/01/21 07:02:25;;;;;;;12.10;3.10;;;3.20;99.90;;;;;;4992679;28;20201;-77
2022/01/21 07:04:53;;;;;;;7.60;3.50;;;3.20;99.90;;;;;;5005223;28;20204;-78
2022/01/21 07:07:22;;;;;;;9.40;3.97;;;3.10;99.90;;;;;;4991460;28;20225;-77
2022/01/21 07:09:49;;;;;;;8.17;3.47;;;2.80;99.90;;;;;;4988107;28;20209;-77
2022/01/21 07:12:17;;;;;;;9.57;3.70;;;2.70;99.90;;;;;;5005483;28;20218;-77
2022/01/21 07:14:45;;;;;;;10.27;3.43;;;2.50;99.90;;;;;;4988050;28;20201;-78
2022/01/21 07:17:15;;;;;;;9.07;3.60;;;2.50;99.90;;;;;;5003856;28;20231;-77
2022/01/21 07:19:44;;;;;;;10.63;4.17;;;2.50;99.90;;;;;;5007203;28;20201;-78
2022/01/21 07:22:11;;;;;;;13.10;3.70;;;2.70;99.90;;;;;;5001736;28;20193;-77
2022/01/21 07:24:39;;;;;;;10.90;3.50;;;2.60;99.90;;;;;;5005987;28;20216;-77
2022/01/21 07:27:09;;;;;;;7.40;3.87;;;2.60;99.90;;;;;;5007554;28;20590;-77
2022/01/21 07:29:36;;;;;;;12.23;3.83;;;2.80;99.90;;;;;;5007133;28;20684;-77
2022/01/21 07:32:08;;;;;;;11.73;3.33;;;2.90;99.90;;;;;;4988564;28;20233;-76
2022/01/21 07:34:37;;;;;;;9.83;4.33;;;2.90;99.90;;;;;;5007276;28;20683;-76
2022/01/21 07:37:04;;;;;;;10.33;4.20;;;2.90;99.90;;;;;;4990580;28;20231;-77
2022/01/21 07:39:34;;;;;;;7.70;3.53;;;2.90;99.90;;;;;;4991142;28;20202;-77
2022/01/21 07:42:01;;;;;;;8.73;3.90;;;3.00;99.90;;;;;;4990545;28;20206;-76
2022/01/21 07:44:29;;;;;;;8.57;3.80;;;3.00;99.90;;;;;;4991534;28;20570;-77
2022/01/21 07:46:56;;;;;;;7.77;4.23;;;2.90;99.90;;;;;;5003759;28;20239;-77
2022/01/21 07:49:24;;;;;;;8.87;4.17;;;3.00;99.90;;;;;;4976605;28;20211;-77
2022/01/21 07:51:52;;;;;;;8.77;3.83;;;2.90;99.90;;;;;;4994003;28;20222;-77
2022/01/21 07:54:20;;;;;;;10.90;3.90;;;2.90;99.90;;;;;;5006858;28;20552;-77
2022/01/21 07:56:47;;;;;;;8.60;4.10;;;3.00;99.90;;;;;;4989938;28;20240;-76
2022/01/21 07:59:16;;;;;;;5.83;3.97;;;3.00;99.90;;;;;;4989839;28;20211;-76
2022/01/21 08:01:44;;;;;;;10.80;4.60;;;3.10;99.90;;;;;;5004849;28;20195;-75
2022/01/21 08:04:11;;;;;;;9.00;4.67;;;3.10;99.90;;;;;;5001426;28;20577;-76
2022/01/21 08:06:39;;;;;;;15.10;5.20;;;3.10;99.90;;;;;;4990651;28;20235;-77
2022/01/21 08:09:08;;;;;;;10.97;5.00;;;3.10;99.90;;;;;;5004619;28;20212;-77
2022/01/21 08:11:35;;;;;;;11.53;4.30;;;2.90;99.90;;;;;;4987744;28;20204;-75
2022/01/21 08:14:03;;;;;;;8.87;4.90;;;2.80;99.90;;;;;;4989244;28;20213;-75
2022/01/21 08:16:32;;;;;;;9.97;4.70;;;2.80;99.90;;;;;;4988638;28;20682;-74
2022/01/21 08:19:00;;;;;;;9.87;5.03;;;2.90;99.90;;;;;;4990114;28;20198;-75
2022/01/21 08:21:28;;;;;;;8.80;4.30;;;3.00;99.90;;;;;;4991904;28;20656;-75
2022/01/21 08:23:55;;;;;;;12.00;5.30;;;3.00;99.90;;;;;;4989981;28;20200;-75
2022/01/21 08:26:27;;;;;;;10.13;5.07;;;3.10;99.90;;;;;;5005573;28;20214;-75
2022/01/21 08:28:57;;;;;;;12.10;5.03;;;3.00;99.90;;;;;;5000320;28;20223;-74
2022/01/21 08:31:25;;;;;;;8.30;5.17;;;2.90;99.90;;;;;;4986055;28;20203;-75
2022/01/21 08:33:53;;;;;;;10.57;4.77;;;3.00;99.90;;;;;;5004139;28;20231;-76
2022/01/21 08:36:20;;;;;;;9.03;4.67;;;2.90;99.90;;;;;;4989439;28;20215;-75
2022/01/21 08:38:48;;;;;;;10.03;4.73;;;3.00;99.90;;;;;;4991234;28;20205;-75
2022/01/21 08:41:15;;;;;;;8.30;4.50;;;3.00;99.90;;;;;;4989634;28;20196;-75
2022/01/21 08:43:44;;;;;;;12.53;5.93;;;3.20;99.90;;;;;;4990149;28;20180;-75
2022/01/21 08:46:12;;;;;;;10.23;5.63;;;3.20;99.90;;;;;;5004171;28;20192;-75
2022/01/21 08:48:40;;;;;;;16.23;6.70;;;3.20;99.90;;;;;;4999996;28;20197;-75
2022/01/21 08:51:10;;;;;;;10.50;4.70;;;3.30;99.90;;;;;;5001780;28;20201;-75
2022/01/21 08:53:41;;;;;;;13.93;5.77;;;3.40;99.90;;;;;;4987665;28;20226;-74
2022/01/21 08:56:12;;;;;;;14.57;4.97;;;3.20;99.90;;;;;;5002126;28;20556;-76
2022/01/21 08:58:57;;;;;;;10.10;5.30;;;3.30;99.90;;;;;;4990851;28;20643;-76
2022/01/21 09:01:32;;;;;;;16.63;5.60;;;3.10;99.90;;;;;;4995319;28;20199;-75
2022/01/21 09:04:27;;;;;;;13.53;4.87;;;2.90;99.90;;;;;;4987468;28;20217;-76
2022/01/21 09:06:57;;;;;;;11.73;5.93;;;2.80;99.90;;;;;;4989562;28;20581;-75
2022/01/21 09:09:25;;;;;;;9.27;5.47;;;2.70;99.90;;;;;;4983547;28;20205;-76
2022/01/21 09:12:00;;;;;;;10.27;6.00;;;2.70;99.90;;;;;;5001243;28;20230;-76
2022/01/21 09:14:31;;;;;;;13.63;6.37;;;2.80;99.90;;;;;;5009858;28;20217;-76
2022/01/21 09:16:58;;;;;;;12.30;6.53;;;2.70;99.90;;;;;;5010545;28;20228;-77
2022/01/21 09:19:28;;;;;;;11.20;6.57;;;2.70;99.90;;;;;;5009968;28;20211;-76
2022/01/21 09:21:56;;;;;;;13.57;6.43;;;3.00;99.90;;;;;;4990456;28;20212;-76
2022/01/21 09:24:23;;;;;;;13.60;6.10;;;3.00;99.90;;;;;;4992921;28;20201;-76
2022/01/21 09:26:51;;;;;;;12.47;6.50;;;3.20;99.90;;;;;;4990044;28;20208;-76
2022/01/21 09:29:19;;;;;;;9.17;6.00;;;3.20;99.90;;;;;;5006306;28;20257;-76
2022/01/21 09:31:47;;;;;;;13.10;6.93;;;3.30;99.90;;;;;;5003367;28;20727;-76
2022/01/21 09:34:19;;;;;;;13.87;6.57;;;3.10;99.90;;;;;;5002213;28;20223;-76
2022/01/21 09:36:47;;;;;;;15.40;7.23;;;3.00;99.90;;;;;;5003520;28;20237;-74
2022/01/21 09:39:15;;;;;;;17.30;7.30;;;2.90;99.90;;;;;;4992681;28;20215;-77
2022/01/21 09:41:43;;;;;;;11.63;7.37;;;3.00;99.90;;;;;;4993159;28;20597;-75
2022/01/21 09:44:13;;;;;;;15.60;7.13;;;2.90;99.90;;;;;;4991704;28;20200;-75
2022/01/21 09:46:45;;;;;;;13.10;7.87;;;2.80;99.90;;;;;;5008185;28;20235;-75
2022/01/21 09:49:26;;;;;;;13.87;7.63;;;2.90;99.90;;;;;;4989098;28;20199;-76
2022/01/21 09:52:18;;;;;;;12.57;7.80;;;2.80;99.90;;;;;;4996748;28;20216;-76
2022/01/21 09:54:47;;;;;;;17.80;7.83;;;2.80;99.90;;;;;;4990741;28;20202;-76
2022/01/21 09:57:20;;;;;;;12.23;8.00;;;2.80;99.90;;;;;;5009584;28;20556;-76
2022/01/21 09:59:48;;;;;;;13.80;7.90;;;3.00;99.90;;;;;;4992250;28;20195;-75
2022/01/21 10:02:19;;;;;;;16.10;7.33;;;3.30;99.90;;;;;;4992980;28;20194;-76
2022/01/21 10:04:52;;;;;;;14.73;7.80;;;3.50;99.90;;;;;;4989539;28;20196;-73
2022/01/21 10:07:22;;;;;;;13.47;8.07;;;3.50;99.90;;;;;;5004630;28;20223;-76
2022/01/21 10:10:08;;;;;;;12.70;7.17;;;3.60;99.90;;;;;;4983361;28;20197;-76
2022/01/21 10:12:46;;;;;;;17.90;7.30;;;3.80;99.90;;;;;;4992933;28;20204;-74
2022/01/21 10:15:29;;;;;;;9.83;7.20;;;4.10;99.90;;;;;;5007276;28;20202;-76
2022/01/21 10:18:02;;;;;;;12.07;7.20;;;4.20;99.90;;;;;;4995244;28;20223;-75
2022/01/21 10:20:36;;;;;;;11.40;6.27;;;4.30;99.90;;;;;;4989583;28;20201;-74
2022/01/21 10:23:08;;;;;;;12.20;7.10;;;4.50;99.90;;;;;;4991487;28;20574;-74
2022/01/21 10:26:05;;;;;;;;;;;;;;;;;;;;;
2022/01/21 10:28:40;;;;;;;9.80;6.30;;;4.40;99.90;;;;;;4988805;28;20224;-75
2022/01/21 10:31:28;;;;;;;10.33;6.43;;;4.20;99.90;;;;;;4976450;28;20204;-76
2022/01/21 10:34:12;;;;;;;13.17;6.27;;;4.00;99.90;;;;;;5006250;28;20216;-76
2022/01/21 10:36:45;;;;;;;11.00;6.57;;;4.10;99.90;;;;;;4996818;28;20254;-76
2022/01/21 10:39:18;;;;;;;11.40;5.93;;;4.10;99.90;;;;;;4991815;28;20204;-76
2022/01/21 10:41:48;;;;;;;11.47;6.70;;;4.00;99.90;;;;;;4997513;28;20209;-75
2022/01/21 10:44:18;;;;;;;13.17;6.50;;;4.10;99.90;;;;;;5000554;28;20234;-75
2022/01/21 10:47:02;;;;;;;13.40;6.93;;;4.00;99.90;;;;;;5000186;28;20242;-75
2022/01/21 10:49:29;;;;;;;11.10;7.00;;;4.10;99.90;;;;;;5002833;28;20696;-75
2022/01/21 10:51:58;;;;;;;13.40;6.40;;;4.30;99.90;;;;;;5000431;28;20216;-74
2022/01/21 10:54:28;;;;;;;13.57;7.07;;;4.20;99.90;;;;;;5000064;28;20228;-75
2022/01/21 10:57:11;;;;;;;10.57;6.90;;;4.50;99.90;;;;;;4991222;28;20228;-75
2022/01/21 10:59:58;;;;;;;11.70;6.67;;;4.30;99.90;;;;;;4983057;28;20207;-75
2022/01/21 11:02:40;;;;;;;12.83;6.90;;;4.10;99.90;;;;;;4990504;28;20208;-75
2022/01/21 11:05:29;;;;;;;8.40;6.40;;;4.10;99.90;;;;;;4986274;28;20210;-76
2022/01/21 11:08:02;;;;;;;10.30;6.03;;;4.10;99.90;;;;;;5003404;28;20714;-75
2022/01/21 11:10:47;;;;;;;11.27;6.83;;;4.20;99.90;;;;;;4985306;28;20204;-75
2022/01/21 11:13:39;;;;;;;10.33;6.30;;;4.20;99.90;;;;;;5004565;28;20659;-75
2022/01/21 11:16:10;;;;;;;11.10;6.80;;;4.20;99.90;;;;;;5007649;28;20224;-75
2022/01/21 11:18:51;;;;;;;10.97;7.37;;;4.40;99.90;;;;;;4998626;28;20201;-76
2022/01/21 11:22:00;;;;;;;15.77;6.77;;;4.40;99.90;;;;;;4988453;28;20203;-75
2022/01/21 11:24:28;;;;;;;10.70;7.70;;;4.30;99.90;;;;;;4988351;28;20206;-76
2022/01/21 11:27:11;;;;;;;15.37;8.23;;;4.30;99.90;;;;;;4984473;28;20219;-76
2022/01/21 11:29:39;;;;;;;14.30;7.20;;;4.20;99.90;;;;;;4986670;28;20218;-76
2022/01/21 11:32:07;;;;;;;14.90;8.43;;;4.30;99.90;;;;;;5004121;28;20665;-77
2022/01/21 11:34:35;;;;;;;13.27;8.07;;;4.40;99.90;;;;;;4988039;28;20620;-77
2022/01/21 11:37:05;;;;;;;16.17;7.67;;;4.50;99.90;;;;;;4999794;28;20228;-77
2022/01/21 11:39:34;;;;;;;13.07;6.97;;;4.60;99.90;;;;;;5007786;28;20215;-77
2022/01/21 11:42:19;;;;;;;13.90;7.20;;;5.00;99.90;;;;;;4988660;28;20211;-75
2022/01/21 11:44:52;;;;;;;12.80;7.10;;;5.10;99.90;;;;;;4989887;28;20196;-76
2022/01/21 11:47:48;;;;;;;9.83;7.07;;;4.90;99.90;;;;;;4987297;28;20227;-76
2022/01/21 11:50:18;;;;;;;9.97;6.13;;;4.90;99.90;;;;;;4990365;28;20201;-76
2022/01/21 11:52:46;;;;;;;12.03;6.33;;;5.10;99.90;;;;;;4988133;28;20213;-76
2022/01/21 11:55:33;;;;;;;13.20;7.20;;;5.10;99.90;;;;;;4989997;28;20228;-75
2022/01/21 11:58:21;;;;;;;11.17;5.10;;;5.10;99.90;;;;;;4990287;28;20225;-75
2022/01/21 12:00:50;;;;;;;9.37;3.80;;;5.20;99.90;;;;;;5006649;28;20208;-76
2022/01/21 12:03:22;;;;;;;9.37;3.23;;;5.20;99.90;;;;;;4990690;28;20738;-76
2022/01/21 12:05:51;;;;;;;10.90;3.90;;;5.30;99.90;;;;;;4989938;28;20252;-76
2022/01/21 12:08:44;;;;;;;9.30;2.63;;;5.50;99.90;;;;;;4989263;28;20225;-76
2022/01/21 12:11:31;;;;;;;7.17;3.10;;;5.30;99.90;;;;;;5000253;28;20199;-76
2022/01/21 12:13:59;;;;;;;10.73;3.23;;;5.30;99.90;;;;;;4988898;28;20215;-76
2022/01/21 12:16:50;;;;;;;9.67;3.63;;;5.30;99.90;;;;;;5004173;28;20206;-76
2022/01/21 12:19:31;;;;;;;14.07;4.40;;;5.30;99.90;;;;;;5003986;28;20198;-76
2022/01/21 12:22:15;;;;;;;7.70;4.13;;;5.30;99.90;;;;;;4989940;28;20223;-76
2022/01/21 12:25:06;;;;;;;9.00;4.80;;;5.30;99.90;;;;;;5004701;28;20194;-76
2022/01/21 12:27:36;;;;;;;9.30;4.13;;;5.30;99.90;;;;;;4984317;28;20217;-76
2022/01/21 12:30:27;;;;;;;8.10;4.00;;;5.30;99.90;;;;;;5015489;28;20252;-76
2022/01/21 12:32:57;;;;;;;10.43;4.00;;;5.30;99.90;;;;;;4992337;28;20535;-76
2022/01/21 12:36:00;;;;;;;9.33;4.63;;;5.30;99.90;;;;;;4991810;28;20236;-76
2022/01/21 12:41:36;;;;;;;15.00;4.50;;;5.30;99.90;;;;;;5010433;28;20196;-76
2022/01/21 12:44:06;;;;;;;7.63;3.70;;;5.20;99.90;;;;;;5005125;28;20197;-76
2022/01/21 12:46:38;;;;;;;7.20;4.07;;;5.30;99.90;;;;;;4992081;28;20209;-76
2022/01/21 12:49:53;;;;;;;8.30;4.63;;;5.30;99.90;;;;;;5010947;28;20580;-76
2022/01/21 12:53:14;;;;;;;9.07;4.57;;;5.30;99.90;;;;;;5011043;28;20209;-76
2022/01/21 12:55:59;;;;;;;11.03;4.80;;;5.20;99.90;;;;;;4994739;28;20224;-76
2022/01/21 12:58:29;;;;;;;9.40;4.73;;;5.20;99.90;;;;;;4999796;28;20230;-76
2022/01/21 13:00:59;;;;;;;9.60;4.23;;;5.30;99.90;;;;;;5016612;28;20208;-76
2022/01/21 13:03:30;;;;;;;12.50;4.27;;;5.30;99.90;;;;;;4994351;28;20218;-76
2022/01/21 13:06:04;;;;;;;7.87;4.07;;;5.30;99.90;;;;;;5010821;28;20205;-76
2022/01/21 13:09:01;;;;;;;8.63;4.03;;;5.20;99.90;;;;;;4993745;28;20211;-76
2022/01/21 13:11:29;;;;;;;12.80;3.97;;;5.20;99.90;;;;;;5010543;28;20208;-76
2022/01/21 13:14:33;;;;;;;7.57;3.50;;;5.20;99.90;;;;;;5010760;28;20202;-76
2022/01/21 13:17:05;;;;;;;13.37;4.43;;;5.20;99.90;;;;;;4993509;28;20232;-76
2022/01/21 13:19:43;;;;;;;9.00;3.90;;;5.30;99.90;;;;;;4993631;28;20206;-76
2022/01/21 13:22:15;;;;;;;12.27;4.00;;;5.30;99.90;;;;;;5010569;28;20205;-76
2022/01/21 13:24:51;;;;;;;10.10;4.27;;;5.30;99.90;;;;;;5009853;28;20197;-76
2022/01/21 13:27:19;;;;;;;6.83;3.87;;;5.30;99.90;;;;;;4996488;28;20212;-75
2022/01/21 13:29:47;;;;;;;10.03;3.90;;;5.30;99.90;;;;;;4996964;28;20202;-76
2022/01/21 13:32:23;;;;;;;6.20;3.83;;;5.30;99.90;;;;;;5012206;28;20212;-76
2022/01/21 13:34:51;;;;;;;10.77;4.40;;;5.40;99.90;;;;;;5017428;28;20215;-76
2022/01/21 13:37:19;;;;;;;9.63;4.43;;;5.50;99.90;;;;;;4994806;28;20227;-75
2022/01/21 13:39:48;;;;;;;13.83;5.27;;;5.50;99.90;;;;;;4995417;28;20203;-74
2022/01/21 13:42:19;;;;;;;8.23;4.30;;;5.50;99.90;;;;;;5010303;28;20202;-75
2022/01/21 13:44:49;;;;;;;11.63;4.67;;;5.40;99.90;;;;;;4994286;28;20213;-75
2022/01/21 13:47:33;;;;;;;8.17;4.57;;;5.40;99.90;;;;;;4990255;28;20739;-75
2022/01/21 13:50:07;;;;;;;12.33;5.53;;;5.50;99.90;;;;;;4988935;28;20202;-75
2022/01/21 13:52:38;;;;;;;11.67;5.20;;;5.50;99.90;;;;;;4990508;28;20200;-75
2022/01/21 13:55:06;;;;;;;10.73;4.17;;;5.40;99.90;;;;;;4987102;28;20230;-75
2022/01/21 13:57:34;;;;;;;13.27;4.20;;;5.40;99.90;;;;;;5005130;28;20218;-75
2022/01/21 14:00:01;;;;;;;11.03;4.50;;;5.40;99.90;;;;;;5007878;28;20579;-75
2022/01/21 14:02:40;;;;;;;9.77;4.57;;;5.30;99.90;;;;;;4988541;28;20203;-75